Time;durP1;ratioP1;P1;durP2;ratioP2;P2;SDS_P1;SDS_P2;PMS_P1;PMS_P2;Temp;Humidity;BMP_temperature;BMP_pressure;BME280_temperature;BME280_humidity;BME280_pressure;Samples;Min_cycle;Max_cycle;Signal;HPM_P1;HPM_P2
2023/07/28 00:01:00;;;;;;;5.30;4.15;;;16.80;99.90;;;16.27;100.00;97254.28;5003834;28;20042;-76
2023/07/28 00:03:27;;;;;;;4.70;3.80;;;16.80;99.90;;;16.28;100.00;97258.59;5020063;28;20456;-76
2023/07/28 00:05:54;;;;;;;6.25;4.22;;;16.80;99.90;;;16.33;100.00;97257.41;5002584;28;20137;-74
2023/07/28 00:08:21;;;;;;;7.60;5.22;;;16.70;99.90;;;16.34;100.00;97249.47;5002670;28;20579;-76
2023/07/28 00:10:48;;;;;;;6.45;5.03;;;16.80;99.90;;;16.35;100.00;97252.91;5001517;28;20077;-76
2023/07/28 00:13:15;;;;;;;6.50;4.45;;;16.80;99.90;;;16.29;100.00;97248.94;5004047;28;20122;-76
2023/07/28 00:15:42;;;;;;;5.78;3.78;;;16.80;99.90;;;16.34;100.00;97254.69;5001869;28;20501;-74
2023/07/28 00:18:27;;;;;;;7.45;4.47;;;16.70;99.90;;;16.36;100.00;97254.59;5003949;28;20048;-76
2023/07/28 00:20:54;;;;;;;13.52;5.85;;;16.70;99.90;;;16.27;100.00;97251.66;5000171;28;20049;-75
2023/07/28 00:23:21;;;;;;;6.32;5.00;;;16.70;99.90;;;16.36;100.00;97249.34;5002157;28;20109;-76
2023/07/28 00:25:48;;;;;;;10.13;6.50;;;16.70;99.90;;;16.40;100.00;97248.16;5002963;28;20081;-76
2023/07/28 00:28:15;;;;;;;7.63;5.82;;;16.80;99.90;;;16.26;100.00;97238.69;5006099;28;20089;-76
2023/07/28 00:30:42;;;;;;;9.30;5.95;;;16.80;99.90;;;16.31;100.00;97240.03;5001995;28;20065;-76
2023/07/28 00:33:12;;;;;;;8.20;6.13;;;16.80;99.90;;;16.25;100.00;97237.00;4997836;28;20147;-77
2023/07/28 00:35:39;;;;;;;5.38;4.20;;;16.80;99.90;;;16.36;100.00;97239.72;5002144;28;20505;-76
2023/07/28 00:38:06;;;;;;;7.35;4.90;;;16.70;99.90;;;16.33;100.00;97239.09;5005459;28;20449;-76
2023/07/28 00:40:33;;;;;;;6.35;4.78;;;16.80;99.90;;;16.33;100.00;97237.31;5002196;28;20104;-77
2023/07/28 00:43:00;;;;;;;5.35;3.80;;;16.70;99.90;;;16.38;100.00;97237.81;5003115;28;20038;-76
2023/07/28 00:45:27;;;;;;;7.10;4.43;;;16.80;99.90;;;16.34;100.00;97233.75;5000189;28;20042;-77
2023/07/28 00:47:57;;;;;;;4.78;3.72;;;16.80;99.90;;;16.37;100.00;97236.13;5000043;28;20049;-76
2023/07/28 00:50:26;;;;;;;5.85;3.78;;;16.70;99.90;;;16.31;100.00;97223.50;5017824;28;20058;-77
2023/07/28 00:52:53;;;;;;;8.38;4.38;;;16.80;99.90;;;16.30;100.00;97227.88;5003324;28;20112;-76
2023/07/28 00:55:21;;;;;;;6.30;4.28;;;16.80;99.90;;;16.36;100.00;97239.72;5001330;28;20124;-76
2023/07/28 00:57:48;;;;;;;7.22;4.97;;;16.70;99.90;;;16.35;100.00;97234.56;4999826;28;20058;-76
2023/07/28 01:00:15;;;;;;;9.60;6.75;;;16.70;99.90;;;16.33;100.00;97232.09;5003802;28;20082;-76
2023/07/28 01:02:42;;;;;;;12.25;9.00;;;16.70;99.90;;;16.21;100.00;97223.28;5003808;28;20492;-75
2023/07/28 01:05:09;;;;;;;10.68;8.00;;;16.70;99.90;;;16.22;100.00;97229.38;5003638;28;20100;-76
2023/07/28 01:07:51;;;;;;;9.93;7.25;;;16.60;99.90;;;16.21;100.00;97223.28;5001051;28;20133;-76
2023/07/28 01:10:28;;;;;;;8.85;7.03;;;16.70;99.90;;;16.26;100.00;97228.19;5006710;28;20069;-76
2023/07/28 01:12:55;;;;;;;12.15;8.88;;;16.70;99.90;;;16.24;100.00;97233.56;4997839;28;20488;-76
2023/07/28 01:15:22;;;;;;;10.35;7.90;;;16.70;99.90;;;16.24;100.00;97233.56;5003246;28;20065;-76
2023/07/28 01:17:50;;;;;;;6.78;4.93;;;16.70;99.90;;;16.29;100.00;97234.06;5003360;28;20078;-77
2023/07/28 01:20:17;;;;;;;7.90;5.55;;;16.60;99.90;;;16.20;100.00;97226.03;5007222;28;20048;-76
2023/07/28 01:23:04;;;;;;;7.03;5.18;;;16.60;99.90;;;16.24;100.00;97227.50;4999958;28;20100;-74
2023/07/28 01:25:49;;;;;;;9.25;5.25;;;16.60;99.90;;;16.29;100.00;97238.47;5001052;28;20050;-76
2023/07/28 01:28:23;;;;;;;5.82;4.45;;;16.60;99.90;;;16.18;100.00;97233.16;5000115;28;20057;-76
2023/07/28 01:30:51;;;;;;;9.18;4.60;;;16.60;99.90;;;16.23;100.00;97225.81;5004842;28;20107;-75
2023/07/28 01:33:19;;;;;;;6.25;4.10;;;16.60;99.90;;;16.19;100.00;97233.03;5005098;28;20054;-74
2023/07/28 01:35:46;;;;;;;7.40;4.90;;;16.60;99.90;;;16.23;100.00;97221.41;5000642;28;20053;-75
2023/07/28 01:38:13;;;;;;;5.78;4.13;;;16.60;99.90;;;16.17;100.00;97221.88;5005230;28;20485;-76
2023/07/28 01:40:40;;;;;;;7.03;4.68;;;16.60;99.90;;;16.20;100.00;97220.81;5003642;28;20065;-76
2023/07/28 01:43:07;;;;;;;5.25;3.15;;;16.60;99.90;;;16.15;100.00;97226.38;5017687;28;20116;-76
2023/07/28 01:45:34;;;;;;;7.00;3.90;;;16.50;99.90;;;16.21;100.00;97223.28;5004170;28;20515;-76
2023/07/28 01:48:01;;;;;;;6.40;3.28;;;16.60;99.90;;;16.15;100.00;97223.75;5002137;28;20141;-76
2023/07/28 01:50:28;;;;;;;5.47;2.47;;;16.50;99.90;;;16.14;100.00;97232.53;4999289;28;20092;-75
2023/07/28 01:52:56;;;;;;;3.53;2.10;;;16.50;99.90;;;16.18;100.00;97225.31;5004741;28;20042;-76
2023/07/28 01:55:24;;;;;;;3.08;2.35;;;16.50;99.90;;;16.18;100.00;97238.41;5006029;28;20088;-75
2023/07/28 01:58:00;;;;;;;3.70;2.00;;;16.40;99.90;;;16.14;100.00;97226.47;5003310;28;20072;-76
2023/07/28 02:00:27;;;;;;;4.15;2.45;;;16.50;99.90;;;16.17;100.00;97221.88;5004246;28;20053;-75
2023/07/28 02:02:55;;;;;;;4.05;2.25;;;16.50;99.90;;;16.17;100.00;97226.25;5004161;28;20409;-75
2023/07/28 02:05:22;;;;;;;3.17;1.60;;;16.50;99.90;;;16.21;100.00;97225.91;5005483;28;20056;-76
2023/07/28 02:07:49;;;;;;;3.28;2.00;;;16.50;99.90;;;16.20;100.00;97212.94;5003173;28;20057;-75
2023/07/28 02:10:16;;;;;;;3.95;1.90;;;16.50;99.90;;;16.14;100.00;97222.06;5007097;28;20116;-75
2023/07/28 02:12:43;;;;;;;1.70;1.10;;;16.50;99.90;;;16.16;100.00;97221.97;5005096;28;20050;-76
2023/07/28 02:15:12;;;;;;;3.28;1.30;;;16.50;99.90;;;16.16;100.00;97212.31;4998898;28;20101;-75
2023/07/28 02:17:39;;;;;;;2.85;1.20;;;16.50;99.90;;;16.15;100.00;97208.03;5000901;28;20054;-74
2023/07/28 02:20:10;;;;;;;3.15;1.17;;;16.40;99.90;;;16.12;100.00;97215.25;5004475;28;20133;-75
2023/07/28 02:22:37;;;;;;;6.25;1.55;;;16.50;99.90;;;16.12;100.00;97216.09;4998672;28;20104;-76
2023/07/28 02:25:05;;;;;;;3.08;1.42;;;16.50;99.90;;;16.09;100.00;97214.53;5001530;28;20148;-77
2023/07/28 02:27:32;;;;;;;2.00;0.85;;;16.50;99.90;;;16.19;100.00;97216.50;5004880;28;20513;-76
2023/07/28 02:29:59;;;;;;;3.17;1.20;;;16.50;99.90;;;16.14;100.00;97208.13;5001174;28;20054;-74
2023/07/28 02:32:28;;;;;;;1.90;1.08;;;16.40;99.90;;;16.10;100.00;97208.38;5002927;28;20050;-76
2023/07/28 02:34:56;;;;;;;2.58;1.17;;;16.50;99.90;;;16.09;100.00;97209.28;5002770;28;20104;-76
2023/07/28 02:37:23;;;;;;;2.35;1.10;;;16.50;99.90;;;16.09;100.00;97209.28;4998985;28;20054;-76
2023/07/28 02:39:50;;;;;;;2.30;1.23;;;16.50;99.90;;;16.13;100.00;97215.16;5003268;28;20128;-75
2023/07/28 02:42:17;;;;;;;2.92;1.35;;;16.50;99.90;;;16.08;100.00;97205.00;5003352;28;20061;-76
2023/07/28 02:44:44;;;;;;;2.47;1.20;;;16.50;99.90;;;16.08;100.00;97202.41;5003370;28;20118;-76
2023/07/28 02:47:11;;;;;;;2.88;1.00;;;16.50;99.90;;;16.13;100.00;97220.41;5002926;28;20100;-76
2023/07/28 02:49:42;;;;;;;2.40;1.10;;;16.50;99.90;;;16.19;100.00;97222.56;5004280;28;20156;-75
2023/07/28 02:52:09;;;;;;;3.08;1.30;;;16.50;99.90;;;16.17;100.00;97226.25;5003824;28;20077;-75
2023/07/28 02:54:36;;;;;;;3.20;1.40;;;16.50;99.90;;;16.13;100.00;97207.31;5003478;28;20054;-75
2023/07/28 02:57:03;;;;;;;1.75;1.02;;;16.50;99.90;;;16.17;100.00;97223.63;5006624;28;20069;-75
2023/07/28 02:59:30;;;;;;;1.63;0.98;;;16.50;99.90;;;16.16;100.00;97220.16;5007799;28;20851;-75
2023/07/28 03:01:57;;;;;;;2.00;1.05;;;16.50;99.90;;;16.15;100.00;97226.38;5007928;28;20555;-77
2023/07/28 03:04:24;;;;;;;2.58;1.13;;;16.50;99.90;;;16.11;100.00;97227.53;5006643;28;20049;-76
2023/07/28 03:06:51;;;;;;;4.35;0.95;;;16.50;99.90;;;16.14;100.00;97227.28;5008536;28;20107;-76
2023/07/28 03:09:19;;;;;;;1.50;0.90;;;16.50;99.90;;;16.20;100.00;97237.34;5004153;28;21270;-76
2023/07/28 03:11:46;;;;;;;1.48;0.82;;;16.50;99.90;;;16.18;100.00;97227.94;5007627;28;20141;-76
2023/07/28 03:14:13;;;;;;;2.10;0.90;;;16.50;99.90;;;16.17;100.00;97227.09;5002039;28;20051;-76
2023/07/28 03:16:42;;;;;;;1.52;0.70;;;16.50;99.90;;;16.16;100.00;97217.56;5007958;28;20500;-76
2023/07/28 03:19:09;;;;;;;4.82;0.90;;;16.50;99.90;;;16.13;100.00;97219.56;5009289;28;20414;-76
2023/07/28 03:21:35;;;;;;;1.48;0.73;;;16.50;99.90;;;16.12;100.00;97218.72;5001103;28;20550;-76
2023/07/28 03:24:06;;;;;;;2.35;0.90;;;16.50;99.90;;;16.15;100.00;97220.28;5006491;28;20052;-76
2023/07/28 03:26:33;;;;;;;1.50;0.75;;;16.50;99.90;;;16.14;100.00;97216.00;5006525;28;20050;-76
2023/07/28 03:29:01;;;;;;;2.40;0.88;;;16.50;99.90;;;16.11;100.00;97209.19;5005906;28;20050;-76
2023/07/28 03:31:28;;;;;;;1.85;0.90;;;16.50;99.90;;;16.09;100.00;97216.31;5001876;28;20432;-76
2023/07/28 03:33:55;;;;;;;2.53;0.90;;;16.50;99.90;;;16.09;100.00;97218.94;5007076;28;20068;-75
2023/07/28 03:36:22;;;;;;;1.83;1.00;;;16.50;99.90;;;16.10;100.00;97239.78;5005923;28;20050;-75
2023/07/28 03:38:49;;;;;;;1.52;0.90;;;16.50;99.90;;;16.19;100.00;97237.44;5005792;28;20046;-75
2023/07/28 03:41:16;;;;;;;3.05;1.00;;;16.40;99.90;;;16.15;100.00;97234.22;5004053;28;20057;-75
2023/07/28 03:43:43;;;;;;;2.42;0.82;;;16.50;99.90;;;16.13;100.00;97235.28;5006264;28;20053;-77
2023/07/28 03:46:13;;;;;;;1.85;1.10;;;16.50;99.90;;;16.14;100.00;97232.53;5005897;28;20046;-76
2023/07/28 03:48:40;;;;;;;1.83;1.05;;;16.50;99.90;;;16.14;100.00;97234.31;5007798;28;20065;-76
2023/07/28 03:51:08;;;;;;;2.30;1.20;;;16.50;99.90;;;16.12;100.00;97226.56;5009469;28;20489;-76
2023/07/28 03:53:35;;;;;;;3.70;1.48;;;16.50;99.90;;;16.12;100.00;97233.59;5002770;28;20100;-75
2023/07/28 03:56:03;;;;;;;1.95;1.08;;;16.50;99.90;;;16.12;100.00;97230.97;5005259;28;20057;-75
2023/07/28 03:58:30;;;;;;;2.35;0.93;;;16.50;99.90;;;16.22;100.00;97237.25;5003281;28;20046;-75
2023/07/28 04:00:57;;;;;;;2.42;1.20;;;16.50;99.90;;;16.25;100.00;97240.47;5006516;28;20108;-76
2023/07/28 04:03:25;;;;;;;4.20;1.20;;;16.50;99.90;;;16.23;100.00;97246.75;5005764;28;20049;-75
2023/07/28 04:05:52;;;;;;;1.50;0.90;;;16.50;99.90;;;16.25;100.00;97240.47;5008793;28;20076;-75
2023/07/28 04:08:19;;;;;;;2.80;1.27;;;16.50;99.90;;;16.21;100.00;97244.25;5008215;28;20404;-76
2023/07/28 04:10:46;;;;;;;2.28;1.20;;;16.50;99.90;;;16.21;100.00;97251.25;5005034;28;20065;-75
2023/07/28 04:13:13;;;;;;;2.47;1.13;;;16.50;99.90;;;16.30;100.00;97256.69;5006752;28;20080;-76
2023/07/28 04:15:40;;;;;;;1.60;1.08;;;16.60;99.90;;;16.28;100.00;97257.75;5005620;28;20149;-76
2023/07/28 04:18:07;;;;;;;2.60;1.27;;;16.60;99.90;;;16.28;100.00;97261.22;5008227;28;20160;-76
2023/07/28 04:20:34;;;;;;;1.83;1.05;;;16.60;99.90;;;16.28;100.00;97266.47;5004845;28;20092;-75
2023/07/28 04:23:02;;;;;;;2.67;1.10;;;16.60;99.90;;;16.23;100.00;97265.91;5004568;28;20079;-75
2023/07/28 04:25:29;;;;;;;3.75;1.17;;;16.60;99.90;;;16.22;100.00;97269.50;5003802;28;20042;-76
2023/07/28 04:27:56;;;;;;;1.52;1.05;;;16.60;99.90;;;16.27;100.00;97272.63;5002261;28;20394;-76
2023/07/28 04:30:23;;;;;;;1.80;1.10;;;16.60;99.90;;;16.36;100.00;97275.56;5001831;28;20050;-76
2023/07/28 04:32:50;;;;;;;1.33;0.90;;;16.60;99.90;;;16.33;100.00;97278.38;5005959;28;20451;-75
2023/07/28 04:35:17;;;;;;;2.28;1.05;;;16.60;99.90;;;16.38;100.00;97279.72;5002077;28;20056;-76
2023/07/28 04:37:45;;;;;;;3.15;1.00;;;16.60;99.90;;;16.40;100.00;97275.22;5001891;28;20143;-74
2023/07/28 04:40:12;;;;;;;1.75;0.82;;;16.60;99.90;;;16.44;100.00;97281.06;5002979;28;20515;-76
2023/07/28 04:42:43;;;;;;;2.03;1.00;;;16.60;99.90;;;16.37;100.00;97278.03;5004502;28;20046;-76
2023/07/28 04:45:10;;;;;;;3.17;1.00;;;16.60;99.90;;;16.39;100.00;97283.19;5006276;28;20042;-76
2023/07/28 04:47:37;;;;;;;2.88;0.90;;;16.60;99.90;;;16.39;100.00;97285.81;5007164;28;20452;-76
2023/07/28 04:50:04;;;;;;;2.25;1.10;;;16.70;99.90;;;16.42;100.00;97286.44;5005229;28;20120;-76
2023/07/28 04:52:32;;;;;;;1.52;0.82;;;16.70;99.90;;;16.38;100.00;97277.13;5003997;28;20057;-74
2023/07/28 04:54:59;;;;;;;2.47;1.10;;;16.70;99.90;;;16.37;100.00;97290.31;5002947;28;20045;-75
2023/07/28 04:57:28;;;;;;;3.35;1.30;;;16.70;99.90;;;16.40;100.00;97283.09;5004339;28;20834;-75
2023/07/28 04:59:55;;;;;;;2.33;1.05;;;16.70;99.90;;;16.37;100.00;97285.06;5001990;28;20152;-76
2023/07/28 05:02:22;;;;;;;2.88;1.20;;;16.70;99.90;;;16.47;100.00;97288.72;5005416;28;20389;-76
2023/07/28 05:04:49;;;;;;;2.42;1.35;;;16.70;99.90;;;16.46;100.00;97290.47;5005791;28;20199;-76
2023/07/28 05:07:16;;;;;;;3.60;1.05;;;16.70;99.90;;;16.42;100.00;97293.44;5004413;28;20045;-76
2023/07/28 05:09:44;;;;;;;2.00;1.23;;;16.70;99.90;;;16.42;100.00;97293.44;5005915;28;20161;-75
2023/07/28 05:12:12;;;;;;;3.53;1.55;;;16.70;99.90;;;16.48;100.00;97287.75;5005220;28;20050;-76
2023/07/28 05:14:40;;;;;;;4.20;1.55;;;16.70;99.90;;;16.48;100.00;97290.38;5001157;28;20089;-76
2023/07/28 05:17:07;;;;;;;2.80;1.35;;;16.80;99.90;;;16.51;100.00;97300.63;5001281;28;20140;-76
2023/07/28 05:19:34;;;;;;;2.83;1.40;;;16.80;99.90;;;16.51;100.00;97300.63;5003026;28;20041;-76
2023/07/28 05:22:01;;;;;;;2.45;1.40;;;16.80;99.90;;;16.55;100.00;97285.56;4999371;28;20053;-75
2023/07/28 05:24:29;;;;;;;3.28;1.55;;;16.80;99.90;;;16.54;100.00;97286.50;5002740;28;20046;-76
2023/07/28 05:26:56;;;;;;;6.38;1.73;;;16.80;99.90;;;16.57;100.00;97297.59;5003674;28;20500;-77
2023/07/28 05:29:23;;;;;;;4.45;1.60;;;16.80;99.90;;;16.59;100.00;97293.09;5003351;28;20107;-74
2023/07/28 05:31:50;;;;;;;2.58;1.52;;;16.80;99.90;;;16.56;100.00;97285.44;5006673;28;20054;-76
2023/07/28 05:34:17;;;;;;;2.75;1.52;;;16.80;99.90;;;16.59;100.00;97284.38;5004148;28;20046;-76
2023/07/28 05:36:45;;;;;;;3.75;1.60;;;16.90;99.90;;;16.58;100.00;97294.03;5005660;28;20049;-76
2023/07/28 05:39:12;;;;;;;2.75;1.77;;;16.90;99.90;;;16.58;100.00;97291.41;4996117;28;20076;-76
2023/07/28 05:41:39;;;;;;;3.13;1.60;;;16.90;99.90;;;16.68;100.00;97291.59;5004652;28;20053;-75
2023/07/28 05:44:06;;;;;;;2.95;2.03;;;16.90;99.90;;;16.65;100.00;97281.31;5003286;28;20049;-75
2023/07/28 05:46:33;;;;;;;3.30;2.00;;;16.90;99.90;;;16.70;100.00;97292.31;5005328;28;20173;-74
2023/07/28 05:49:01;;;;;;;5.35;2.03;;;16.90;99.90;;;16.65;100.00;97283.94;5004201;28;20425;-75
2023/07/28 05:51:28;;;;;;;4.53;2.33;;;16.90;99.90;;;16.71;100.00;97289.56;4997030;28;20841;-76
2023/07/28 05:53:55;;;;;;;4.47;2.17;;;16.90;99.90;;;16.60;100.00;97288.66;5002653;28;20054;-76
2023/07/28 05:56:22;;;;;;;4.82;1.95;;;16.90;99.90;;;16.68;100.00;97294.22;5002812;28;20172;-76
2023/07/28 05:58:50;;;;;;;3.35;2.22;;;16.90;99.90;;;16.69;100.00;97285.38;4998810;28;20497;-76
2023/07/28 06:01:18;;;;;;;3.72;2.40;;;16.90;99.90;;;16.58;100.00;97285.31;5003447;28;20590;-76
2023/07/28 06:03:45;;;;;;;6.78;2.42;;;16.90;99.90;;;16.65;100.00;97297.88;5004904;28;20536;-76
2023/07/28 06:06:13;;;;;;;4.50;3.17;;;16.90;99.90;;;16.64;100.00;97293.59;5003845;28;20046;-76
2023/07/28 06:08:40;;;;;;;4.05;3.00;;;17.00;99.90;;;16.75;100.00;97299.84;5003087;28;20085;-76
2023/07/28 06:11:07;;;;;;;3.83;2.13;;;17.00;99.90;;;16.80;100.00;97293.34;5004075;28;20054;-76
2023/07/28 06:13:34;;;;;;;5.25;2.08;;;17.00;99.90;;;16.92;100.00;97300.34;5003850;28;20112;-76
2023/07/28 06:16:01;;;;;;;2.22;1.10;;;17.10;99.90;;;16.96;100.00;97298.31;4999805;28;20073;-76
2023/07/28 06:18:28;;;;;;;2.35;1.25;;;17.10;99.90;;;16.89;100.00;97297.91;5003328;28;20049;-76
2023/07/28 06:20:55;;;;;;;1.88;1.27;;;17.10;99.90;;;16.89;100.00;97297.09;5013637;28;20199;-75
2023/07/28 06:23:23;;;;;;;2.38;1.50;;;17.20;99.90;;;16.91;100.00;97308.31;5006149;28;20100;-76
2023/07/28 06:25:51;;;;;;;2.70;1.33;;;17.10;99.90;;;16.97;100.00;97304.38;5000899;28;20053;-75
2023/07/28 06:28:18;;;;;;;2.95;1.52;;;17.10;99.90;;;16.85;100.00;97301.69;5006184;28;20046;-76
2023/07/28 06:30:45;;;;;;;3.03;1.77;;;17.20;99.90;;;16.86;100.00;97303.41;5007587;28;20061;-74
2023/07/28 06:33:13;;;;;;;3.65;1.60;;;17.20;99.90;;;16.81;100.00;97302.91;5006810;28;20057;-76
2023/07/28 06:35:40;;;;;;;3.38;1.40;;;17.20;99.90;;;16.82;100.00;97306.34;5007647;28;20085;-76
2023/07/28 06:38:07;;;;;;;4.60;1.30;;;17.20;99.90;;;16.88;100.00;97311.16;5009513;28;20475;-76
2023/07/28 06:40:34;;;;;;;2.55;1.30;;;17.20;99.90;;;17.06;100.00;97314.19;5010084;28;20148;-76
2023/07/28 06:43:01;;;;;;;5.00;1.30;;;17.10;99.90;;;17.08;100.00;97310.53;5007545;28;20519;-76
2023/07/28 06:45:29;;;;;;;2.03;1.05;;;17.30;99.90;;;17.11;100.00;97310.31;4986658;28;20042;-75
2023/07/28 06:47:56;;;;;;;4.60;1.33;;;17.30;99.90;;;17.01;100.00;97317.16;4988040;28;20076;-76
2023/07/28 06:50:23;;;;;;;1.70;1.10;;;17.40;99.90;;;17.14;100.00;97319.72;5006810;28;20078;-76
2023/07/28 06:52:51;;;;;;;1.48;0.82;;;17.40;99.90;;;17.29;100.00;97323.88;5006060;28;20056;-75
2023/07/28 06:55:20;;;;;;;1.95;1.05;;;17.50;99.90;;;17.42;100.00;97328.19;5007140;28;20053;-75
2023/07/28 06:57:49;;;;;;;2.60;1.33;;;17.60;99.90;;;17.52;100.00;97334.44;5011157;28;20057;-75
2023/07/28 07:00:17;;;;;;;3.45;1.85;;;17.60;99.90;;;17.38;100.00;97319.72;5007724;28;20783;-75
2023/07/28 07:02:45;;;;;;;4.07;1.58;;;17.60;99.90;;;17.52;100.00;97318.69;5004908;28;20045;-75
2023/07/28 07:05:12;;;;;;;3.45;1.50;;;17.50;99.90;;;17.60;100.00;97325.97;5011335;28;20085;-75
2023/07/28 07:07:41;;;;;;;3.40;1.52;;;17.70;99.90;;;17.65;100.00;97323.84;5009841;28;20512;-75
2023/07/28 07:10:09;;;;;;;2.75;1.38;;;17.60;99.90;;;17.71;100.00;97312.88;5007572;28;20072;-75
2023/07/28 07:12:36;;;;;;;4.22;1.50;;;17.70;99.90;;;17.75;100.00;97319.59;5007881;28;20492;-75
2023/07/28 07:15:05;;;;;;;2.83;1.67;;;17.80;99.90;;;17.72;100.00;97312.78;5004376;28;20638;-75
2023/07/28 07:17:33;;;;;;;5.90;2.95;;;17.70;99.90;;;17.93;100.00;97312.97;5005618;28;20483;-75
2023/07/28 07:20:00;;;;;;;5.20;2.05;;;17.80;99.90;;;18.08;100.00;97299.59;5004119;28;20461;-73
2023/07/28 07:22:28;;;;;;;2.40;1.60;;;17.80;99.90;;;18.08;100.00;97287.28;5008606;28;20104;-75
2023/07/28 07:24:56;;;;;;;3.60;1.70;;;17.90;99.90;;;18.21;100.00;97275.84;5008921;28;20125;-75
2023/07/28 07:27:24;;;;;;;3.42;1.70;;;17.90;99.90;;;18.03;100.00;97270.22;5009474;28;20046;-75
2023/07/28 07:29:52;;;;;;;3.47;2.00;;;18.00;99.90;;;17.78;100.00;97269.47;5005308;28;20077;-75
2023/07/28 07:32:19;;;;;;;3.38;1.67;;;18.00;99.90;;;17.88;100.00;97275.72;5004260;28;20046;-75
2023/07/28 07:34:46;;;;;;;3.95;1.98;;;18.00;99.90;;;17.74;100.00;97275.88;5005812;28;20050;-74
2023/07/28 07:37:13;;;;;;;2.95;1.58;;;18.00;99.90;;;17.91;100.00;97272.03;5002466;28;20050;-74
2023/07/28 07:39:41;;;;;;;4.40;1.65;;;17.80;99.90;;;17.80;100.00;97274.59;5003358;28;20045;-76
2023/07/28 07:42:10;;;;;;;5.15;2.03;;;17.80;99.90;;;17.77;100.00;97276.50;4999846;28;20056;-75
2023/07/28 07:44:38;;;;;;;2.35;1.55;;;17.90;99.90;;;17.86;100.00;97282.03;5001929;28;20062;-75
2023/07/28 07:47:14;;;;;;;2.80;1.65;;;17.90;99.90;;;18.25;100.00;97283.38;4997630;28;20053;-74
2023/07/28 07:49:42;;;;;;;3.17;1.45;;;18.10;99.90;;;18.47;100.00;97277.22;5004664;28;20050;-74
2023/07/28 07:52:09;;;;;;;2.58;1.58;;;18.40;99.90;;;18.80;100.00;97265.84;4998462;28;20188;-74
2023/07/28 07:54:37;;;;;;;3.85;2.35;;;18.60;99.90;;;18.93;100.00;97264.84;5006360;28;20123;-74
2023/07/28 07:57:05;;;;;;;2.92;1.33;;;18.80;99.90;;;19.20;100.00;97257.34;4998307;28;20132;-74
2023/07/28 07:59:35;;;;;;;2.80;1.30;;;19.10;99.90;;;19.38;100.00;97251.47;4999814;28;20169;-74
2023/07/28 08:02:03;;;;;;;3.15;1.52;;;19.40;99.90;;;19.16;100.00;97263.81;4985784;28;20081;-75
2023/07/28 08:04:31;;;;;;;3.63;1.45;;;19.40;99.90;;;19.23;100.00;97261.50;5004218;28;20046;-74
2023/07/28 08:06:59;;;;;;;3.08;1.38;;;19.20;99.90;;;19.21;100.00;97251.09;5006594;28;20072;-75
2023/07/28 08:09:29;;;;;;;2.20;1.30;;;19.30;99.90;;;18.84;100.00;97257.69;4992489;28;20627;-75
2023/07/28 08:11:56;;;;;;;5.60;1.60;;;19.20;99.90;;;18.68;100.00;97265.97;5002275;28;20114;-75
2023/07/28 08:14:23;;;;;;;3.95;1.65;;;19.00;99.90;;;18.37;100.00;97268.41;5002467;28;20806;-75
2023/07/28 08:16:55;;;;;;;3.72;2.13;;;18.80;99.90;;;18.37;100.00;97278.94;4998250;28;20060;-74
2023/07/28 08:19:28;;;;;;;3.72;1.98;;;18.70;99.90;;;18.43;100.00;97280.22;5006493;28;20111;-76
2023/07/28 08:21:55;;;;;;;3.15;1.63;;;18.60;99.90;;;18.49;100.00;97287.63;5007492;28;20050;-76
2023/07/28 08:24:25;;;;;;;2.40;1.75;;;18.70;99.90;;;18.51;100.00;97293.59;5006651;28;20520;-76
2023/07/28 08:26:53;;;;;;;4.53;2.08;;;18.80;99.90;;;18.52;100.00;97285.59;5007801;28;20429;-75
2023/07/28 08:29:20;;;;;;;2.88;1.80;;;18.80;99.90;;;18.54;100.00;97286.31;5008839;28;20497;-75
2023/07/28 08:31:47;;;;;;;3.10;1.80;;;18.80;99.90;;;18.78;100.00;97285.34;5006762;28;20155;-74
2023/07/28 08:34:15;;;;;;;4.93;2.20;;;18.80;99.90;;;18.97;100.00;97282.03;5009181;28;20049;-76
2023/07/28 08:36:43;;;;;;;4.03;2.05;;;18.90;99.90;;;18.85;100.00;97285.69;5005978;28;20045;-75
2023/07/28 08:39:11;;;;;;;4.72;2.15;;;18.80;99.90;;;18.63;100.00;97276.00;5005730;28;20149;-76
2023/07/28 08:41:39;;;;;;;4.07;1.98;;;18.90;99.90;;;18.64;100.00;97285.59;5004419;28;20389;-75
2023/07/28 08:44:07;;;;;;;4.10;2.25;;;18.70;99.90;;;18.63;100.00;97281.28;5006686;28;20058;-76
2023/07/28 08:46:35;;;;;;;4.25;2.10;;;18.80;99.90;;;18.51;100.00;97273.41;5005493;28;20053;-75
2023/07/28 08:49:02;;;;;;;5.43;2.10;;;18.70;99.90;;;18.69;100.00;97272.91;4998018;28;20045;-76
2023/07/28 08:51:32;;;;;;;3.60;2.13;;;18.80;99.90;;;18.80;100.00;97286.88;5001837;28;20064;-75
2023/07/28 08:53:59;;;;;;;3.95;2.05;;;18.80;99.90;;;19.21;100.00;97282.66;5014943;28;20053;-74
2023/07/28 08:56:28;;;;;;;4.53;2.03;;;19.10;99.90;;;19.99;100.00;97291.09;5001691;28;20050;-75
2023/07/28 08:58:59;;;;;;;3.83;1.85;;;19.80;99.90;;;20.20;100.00;97264.69;5004156;28;20049;-76
2023/07/28 09:02:22;;;;;;;3.05;1.73;;;20.00;99.90;;;19.84;100.00;97248.47;5003680;28;20068;-76
2023/07/28 09:04:50;;;;;;;3.45;2.00;;;20.10;99.90;;;19.52;100.00;97251.16;5007786;28;20085;-76
2023/07/28 09:07:17;;;;;;;4.30;2.08;;;20.20;99.90;;;19.74;100.00;97250.22;5009310;28;20050;-77
2023/07/28 09:09:44;;;;;;;4.65;2.17;;;20.00;99.90;;;19.52;100.00;97255.59;5011319;28;20108;-78
2023/07/28 09:12:11;;;;;;;4.18;2.10;;;19.90;99.90;;;19.44;100.00;97250.97;5012337;28;20053;-77
2023/07/28 09:14:39;;;;;;;3.75;1.80;;;19.60;99.90;;;19.53;100.00;97244.94;5009493;28;20134;-78
2023/07/28 09:17:12;;;;;;;5.65;2.33;;;19.60;99.90;;;19.27;100.00;97246.28;5009954;28;20100;-78
2023/07/28 09:19:56;;;;;;;3.15;2.00;;;19.70;99.90;;;19.44;100.00;97257.06;5026553;28;20045;-77
2023/07/28 09:22:24;;;;;;;4.38;2.10;;;19.60;99.90;;;19.44;100.00;97270.22;5007087;28;20064;-78
2023/07/28 09:24:51;;;;;;;7.00;1.83;;;19.60;99.90;;;19.33;100.00;97272.91;4991137;28;20112;-77
2023/07/28 09:27:23;;;;;;;2.33;1.58;;;19.60;99.90;;;19.30;100.00;97275.81;5008386;28;20042;-77
2023/07/28 09:29:55;;;;;;;4.35;2.13;;;19.40;99.90;;;18.86;100.00;97297.84;5007535;28;20496;-77
2023/07/28 09:32:33;;;;;;;3.47;2.05;;;19.30;99.90;;;18.97;100.00;97301.28;5008218;28;20049;-77
2023/07/28 09:35:12;;;;;;;2.72;1.90;;;19.30;99.90;;;19.25;100.00;97311.34;5009307;28;20053;-77
2023/07/28 09:37:45;;;;;;;3.67;1.98;;;19.20;99.90;;;19.27;100.00;97307.63;5008438;28;20330;-76
2023/07/28 09:40:21;;;;;;;3.05;1.73;;;19.40;99.90;;;19.53;100.00;97310.75;4991854;28;20115;-76
2023/07/28 09:42:49;;;;;;;5.00;1.70;;;19.50;99.90;;;19.97;100.00;97290.38;4998767;28;20054;-76
2023/07/28 09:45:22;;;;;;;2.88;1.50;;;19.60;99.90;;;19.97;100.00;97282.47;5006736;28;20046;-77
2023/07/28 09:48:09;;;;;;;2.20;1.25;;;19.80;99.90;;;19.96;100.00;97265.03;4991606;28;20057;-75
2023/07/28 09:50:39;;;;;;;2.10;1.40;;;19.90;99.90;;;20.08;100.00;97268.41;5005694;28;20057;-76
2023/07/28 09:53:10;;;;;;;2.75;1.25;;;19.90;99.90;;;19.81;100.00;97261.88;5002797;28;20049;-77
2023/07/28 09:55:42;;;;;;;2.35;1.40;;;19.80;99.90;;;19.64;100.00;97273.81;5016390;28;20414;-77
2023/07/28 09:58:12;;;;;;;2.90;1.63;;;19.80;99.90;;;19.36;100.00;97290.25;5003232;28;20073;-77
2023/07/28 10:00:41;;;;;;;4.82;2.40;;;19.70;99.90;;;19.09;100.00;97304.75;5019844;28;20049;-75
2023/07/28 10:03:09;;;;;;;3.83;2.30;;;19.60;99.90;;;18.99;100.00;97322.22;5004690;28;20120;-76
2023/07/28 10:05:38;;;;;;;3.58;2.40;;;19.50;99.90;;;18.79;100.00;97337.81;5005896;28;20149;-75
2023/07/28 10:08:06;;;;;;;4.60;2.35;;;19.30;99.90;;;18.92;100.00;97344.72;5005130;28;20046;-77
2023/07/28 10:10:34;;;;;;;3.50;2.35;;;19.30;99.90;;;18.92;100.00;97352.59;5008170;28;20156;-77
2023/07/28 10:13:01;;;;;;;3.35;2.13;;;19.30;99.90;;;18.80;100.00;97364.94;5006459;28;20143;-78
2023/07/28 10:15:31;;;;;;;3.42;2.53;;;19.10;99.90;;;18.78;100.00;97362.41;5010677;28;20116;-78
2023/07/28 10:18:00;;;;;;;8.55;2.20;;;19.20;99.90;;;18.55;100.00;97371.25;5010087;28;20480;-77